sensor_id;sensor_type;location;lat;lon;timestamp;temperature;humidity
57753;DHT22;43583;53.132;6.574;2023-06-24T00:01:50;14.80;99.90
57753;DHT22;43583;53.132;6.574;2023-06-24T00:04:16;14.70;99.90
57753;DHT22;43583;53.132;6.574;2023-06-24T00:06:44;14.70;99.90
57753;DHT22;43583;53.132;6.574;2023-06-24T00:09:10;14.70;99.90
57753;DHT22;43583;53.132;6.574;2023-06-24T00:11:35;14.60;99.90
57753;DHT22;43583;53.132;6.574;2023-06-24T00:14:01;14.60;99.90
57753;DHT22;43583;53.132;6.574;2023-06-24T00:16:27;14.60;99.90
57753;DHT22;43583;53.132;6.574;2023-06-24T00:18:56;14.50;99.90
57753;DHT22;43583;53.132;6.574;2023-06-24T00:21:25;14.50;99.90
57753;DHT22;43583;53.132;6.574;2023-06-24T00:23:58;14.50;99.90
57753;DHT22;43583;53.132;6.574;2023-06-24T00:26:25;14.50;99.90
57753;DHT22;43583;53.132;6.574;2023-06-24T00:28:51;14.50;99.90
57753;DHT22;43583;53.132;6.574;2023-06-24T00:31:16;14.40;99.90
57753;DHT22;43583;53.132;6.574;2023-06-24T00:33:42;14.40;99.90
57753;DHT22;43583;53.132;6.574;2023-06-24T00:36:08;14.40;99.90
57753;DHT22;43583;53.132;6.574;2023-06-24T00:38:37;14.30;99.90
57753;DHT22;43583;53.132;6.574;2023-06-24T00:41:03;14.30;99.90
57753;DHT22;43583;53.132;6.574;2023-06-24T00:43:29;14.20;99.90
57753;DHT22;43583;53.132;6.574;2023-06-24T00:45:56;14.30;99.90
57753;DHT22;43583;53.132;6.574;2023-06-24T00:48:22;14.20;99.90
57753;DHT22;43583;53.132;6.574;2023-06-24T00:50:48;14.20;99.90
57753;DHT22;43583;53.132;6.574;2023-06-24T00:53:15;14.20;99.90
57753;DHT22;43583;53.132;6.574;2023-06-24T00:55:41;14.20;99.90
57753;DHT22;43583;53.132;6.574;2023-06-24T00:58:06;14.20;99.90
57753;DHT22;43583;53.132;6.574;2023-06-24T01:00:32;14.10;99.90
57753;DHT22;43583;53.132;6.574;2023-06-24T01:02:59;14.20;99.90
57753;DHT22;43583;53.132;6.574;2023-06-24T01:05:26;14.10;99.90
57753;DHT22;43583;53.132;6.574;2023-06-24T01:07:53;14.10;99.90
57753;DHT22;43583;53.132;6.574;2023-06-24T01:10:22;14.00;99.90
57753;DHT22;43583;53.132;6.574;2023-06-24T01:12:49;14.00;99.90
57753;DHT22;43583;53.132;6.574;2023-06-24T01:15:15;14.00;99.90
57753;DHT22;43583;53.132;6.574;2023-06-24T01:17:45;14.00;99.90
57753;DHT22;43583;53.132;6.574;2023-06-24T01:20:35;13.90;99.90
57753;DHT22;43583;53.132;6.574;2023-06-24T01:23:15;13.90;99.90
57753;DHT22;43583;53.132;6.574;2023-06-24T01:39:25;13.90;99.90
57753;DHT22;43583;53.132;6.574;2023-06-24T01:41:59;13.80;99.90
57753;DHT22;43583;53.132;6.574;2023-06-24T01:44:28;13.80;99.90
57753;DHT22;43583;53.132;6.574;2023-06-24T01:46:56;13.80;99.90
57753;DHT22;43583;53.132;6.574;2023-06-24T01:49:23;13.70;99.90
57753;DHT22;43583;53.132;6.574;2023-06-24T01:51:54;13.70;99.90
57753;DHT22;43583;53.132;6.574;2023-06-24T01:54:22;13.70;99.90
57753;DHT22;43583;53.132;6.574;2023-06-24T01:56:50;13.70;99.90
57753;DHT22;43583;53.132;6.574;2023-06-24T01:59:18;13.70;99.90
57753;DHT22;43583;53.132;6.574;2023-06-24T02:01:46;13.70;99.90
57753;DHT22;43583;53.132;6.574;2023-06-24T02:04:13;13.70;99.90
57753;DHT22;43583;53.132;6.574;2023-06-24T02:06:41;13.60;99.90
57753;DHT22;43583;53.132;6.574;2023-06-24T02:09:08;13.60;99.90
57753;DHT22;43583;53.132;6.574;2023-06-24T02:11:35;13.60;99.90
57753;DHT22;43583;53.132;6.574;2023-06-24T02:14:03;13.60;99.90
57753;DHT22;43583;53.132;6.574;2023-06-24T02:16:30;13.60;99.90
57753;DHT22;43583;53.132;6.574;2023-06-24T02:18:57;13.60;99.90
57753;DHT22;43583;53.132;6.574;2023-06-24T02:21:24;13.50;99.90
57753;DHT22;43583;53.132;6.574;2023-06-24T02:23:52;13.60;99.90
57753;DHT22;43583;53.132;6.574;2023-06-24T02:26:18;13.50;99.90
57753;DHT22;43583;53.132;6.574;2023-06-24T02:28:45;13.50;99.90
57753;DHT22;43583;53.132;6.574;2023-06-24T02:31:12;13.50;99.90
57753;DHT22;43583;53.132;6.574;2023-06-24T02:33:39;13.50;99.90
57753;DHT22;43583;53.132;6.574;2023-06-24T02:36:05;13.50;99.90
57753;DHT22;43583;53.132;6.574;2023-06-24T02:38:31;13.40;99.90
57753;DHT22;43583;53.132;6.574;2023-06-24T02:40:57;13.50;99.90
57753;DHT22;43583;53.132;6.574;2023-06-24T02:43:24;13.40;99.90
57753;DHT22;43583;53.132;6.574;2023-06-24T02:45:49;13.40;99.90
57753;DHT22;43583;53.132;6.574;2023-06-24T02:48:16;13.50;99.90
57753;DHT22;43583;53.132;6.574;2023-06-24T02:50:43;13.40;99.90
57753;DHT22;43583;53.132;6.574;2023-06-24T02:53:14;13.40;99.90
57753;DHT22;43583;53.132;6.574;2023-06-24T02:55:41;13.40;99.90
57753;DHT22;43583;53.132;6.574;2023-06-24T02:58:08;13.40;99.90
57753;DHT22;43583;53.132;6.574;2023-06-24T03:00:37;13.40;99.90
57753;DHT22;43583;53.132;6.574;2023-06-24T03:03:05;13.40;99.90
57753;DHT22;43583;53.132;6.574;2023-06-24T03:05:31;13.40;99.90
57753;DHT22;43583;53.132;6.574;2023-06-24T03:07:58;13.40;99.90
57753;DHT22;43583;53.132;6.574;2023-06-24T03:10:24;13.40;99.90
57753;DHT22;43583;53.132;6.574;2023-06-24T03:12:51;13.40;99.90
57753;DHT22;43583;53.132;6.574;2023-06-24T03:15:17;13.50;99.90
57753;DHT22;43583;53.132;6.574;2023-06-24T03:17:43;13.50;99.90
57753;DHT22;43583;53.132;6.574;2023-06-24T03:20:09;13.50;99.90
57753;DHT22;43583;53.132;6.574;2023-06-24T03:22:35;13.50;99.90
57753;DHT22;43583;53.132;6.574;2023-06-24T03:25:00;13.60;99.90
57753;DHT22;43583;53.132;6.574;2023-06-24T03:27:26;13.60;99.90
57753;DHT22;43583;53.132;6.574;2023-06-24T03:29:51;13.60;99.90
57753;DHT22;43583;53.132;6.574;2023-06-24T03:32:17;13.60;99.90
57753;DHT22;43583;53.132;6.574;2023-06-24T03:34:42;13.70;99.90
57753;DHT22;43583;53.132;6.574;2023-06-24T03:37:08;13.70;99.90
57753;DHT22;43583;53.132;6.574;2023-06-24T03:39:34;13.80;99.90
57753;DHT22;43583;53.132;6.574;2023-06-24T03:41:59;13.80;99.90
57753;DHT22;43583;53.132;6.574;2023-06-24T03:44:25;13.80;99.90
57753;DHT22;43583;53.132;6.574;2023-06-24T03:46:51;13.90;99.90
57753;DHT22;43583;53.132;6.574;2023-06-24T03:49:16;13.90;99.90
57753;DHT22;43583;53.132;6.574;2023-06-24T03:51:43;14.00;99.90
57753;DHT22;43583;53.132;6.574;2023-06-24T03:54:09;14.30;99.90
57753;DHT22;43583;53.132;6.574;2023-06-24T03:56:35;14.60;99.90
57753;DHT22;43583;53.132;6.574;2023-06-24T03:59:00;15.00;99.90
57753;DHT22;43583;53.132;6.574;2023-06-24T04:01:26;15.30;99.90
57753;DHT22;43583;53.132;6.574;2023-06-24T04:03:51;15.60;99.90
57753;DHT22;43583;53.132;6.574;2023-06-24T04:06:17;15.90;99.90
57753;DHT22;43583;53.132;6.574;2023-06-24T04:08:42;16.00;99.90
57753;DHT22;43583;53.132;6.574;2023-06-24T04:11:14;16.00;99.90
57753;DHT22;43583;53.132;6.574;2023-06-24T04:13:39;16.10;99.90
57753;DHT22;43583;53.132;6.574;2023-06-24T04:16:05;16.30;99.90
57753;DHT22;43583;53.132;6.574;2023-06-24T04:18:30;16.60;99.90
57753;DHT22;43583;53.132;6.574;2023-06-24T04:20:56;17.00;99.90
57753;DHT22;43583;53.132;6.574;2023-06-24T04:23:22;17.30;99.90
57753;DHT22;43583;53.132;6.574;2023-06-24T04:25:48;17.70;99.90
57753;DHT22;43583;53.132;6.574;2023-06-24T04:28:13;18.00;99.90
57753;DHT22;43583;53.132;6.574;2023-06-24T04:30:39;18.30;99.90
57753;DHT22;43583;53.132;6.574;2023-06-24T04:33:04;18.60;99.90
57753;DHT22;43583;53.132;6.574;2023-06-24T04:35:30;18.80;99.90
57753;DHT22;43583;53.132;6.574;2023-06-24T04:37:56;19.00;99.90
57753;DHT22;43583;53.132;6.574;2023-06-24T04:40:22;19.10;99.90
57753;DHT22;43583;53.132;6.574;2023-06-24T04:42:47;19.20;99.90
57753;DHT22;43583;53.132;6.574;2023-06-24T04:45:13;19.10;99.90
57753;DHT22;43583;53.132;6.574;2023-06-24T04:47:39;19.10;99.90
57753;DHT22;43583;53.132;6.574;2023-06-24T04:50:05;19.10;99.90
57753;DHT22;43583;53.132;6.574;2023-06-24T04:52:31;19.40;99.90
57753;DHT22;43583;53.132;6.574;2023-06-24T04:54:56;19.90;99.90
57753;DHT22;43583;53.132;6.574;2023-06-24T04:57:30;20.70;99.90
57753;DHT22;43583;53.132;6.574;2023-06-24T04:59:57;21.40;99.90
57753;DHT22;43583;53.132;6.574;2023-06-24T05:02:23;22.10;99.90
57753;DHT22;43583;53.132;6.574;2023-06-24T05:04:49;22.60;99.90
57753;DHT22;43583;53.132;6.574;2023-06-24T05:07:15;23.20;99.90
57753;DHT22;43583;53.132;6.574;2023-06-24T05:09:41;23.60;99.90
57753;DHT22;43583;53.132;6.574;2023-06-24T05:12:07;23.80;99.90
57753;DHT22;43583;53.132;6.574;2023-06-24T05:14:36;23.90;99.90
57753;DHT22;43583;53.132;6.574;2023-06-24T05:17:03;24.20;99.90
57753;DHT22;43583;53.132;6.574;2023-06-24T05:19:29;24.40;99.90
57753;DHT22;43583;53.132;6.574;2023-06-24T05:21:55;24.40;99.90
57753;DHT22;43583;53.132;6.574;2023-06-24T05:24:20;24.60;99.90
57753;DHT22;43583;53.132;6.574;2023-06-24T05:26:49;24.90;99.90
57753;DHT22;43583;53.132;6.574;2023-06-24T05:29:16;25.30;99.90
57753;DHT22;43583;53.132;6.574;2023-06-24T05:31:41;25.80;99.90
57753;DHT22;43583;53.132;6.574;2023-06-24T05:34:07;26.20;99.90
57753;DHT22;43583;53.132;6.574;2023-06-24T05:36:33;26.70;99.90
57753;DHT22;43583;53.132;6.574;2023-06-24T05:38:59;27.10;99.90
57753;DHT22;43583;53.132;6.574;2023-06-24T05:41:25;27.40;99.90
57753;DHT22;43583;53.132;6.574;2023-06-24T05:44:04;27.70;99.90
57753;DHT22;43583;53.132;6.574;2023-06-24T05:46:30;28.10;99.90
57753;DHT22;43583;53.132;6.574;2023-06-24T05:48:56;28.30;99.90
57753;DHT22;43583;53.132;6.574;2023-06-24T05:51:21;28.60;99.90
57753;DHT22;43583;53.132;6.574;2023-06-24T05:53:47;28.80;99.90
57753;DHT22;43583;53.132;6.574;2023-06-24T05:56:12;29.00;99.90
57753;DHT22;43583;53.132;6.574;2023-06-24T05:58:38;29.10;99.30
57753;DHT22;43583;53.132;6.574;2023-06-24T06:01:03;29.40;98.40
57753;DHT22;43583;53.132;6.574;2023-06-24T06:03:29;29.60;98.40
57753;DHT22;43583;53.132;6.574;2023-06-24T06:05:56;29.80;97.20
57753;DHT22;43583;53.132;6.574;2023-06-24T06:08:21;29.80;96.50
57753;DHT22;43583;53.132;6.574;2023-06-24T06:10:47;29.90;96.00
57753;DHT22;43583;53.132;6.574;2023-06-24T06:13:12;30.10;95.90
57753;DHT22;43583;53.132;6.574;2023-06-24T06:15:38;30.20;95.50
57753;DHT22;43583;53.132;6.574;2023-06-24T06:18:04;30.30;94.40
57753;DHT22;43583;53.132;6.574;2023-06-24T06:20:29;30.60;93.70
57753;DHT22;43583;53.132;6.574;2023-06-24T06:22:55;30.80;92.70
57753;DHT22;43583;53.132;6.574;2023-06-24T06:25:20;30.90;92.20
57753;DHT22;43583;53.132;6.574;2023-06-24T06:27:46;31.20;91.70
57753;DHT22;43583;53.132;6.574;2023-06-24T06:30:12;31.40;91.30
57753;DHT22;43583;53.132;6.574;2023-06-24T06:32:38;31.60;91.50
57753;DHT22;43583;53.132;6.574;2023-06-24T06:35:03;32.00;91.10
57753;DHT22;43583;53.132;6.574;2023-06-24T06:37:29;32.20;90.10
57753;DHT22;43583;53.132;6.574;2023-06-24T06:39:55;32.20;89.00
57753;DHT22;43583;53.132;6.574;2023-06-24T06:42:20;31.90;88.30
57753;DHT22;43583;53.132;6.574;2023-06-24T06:44:46;31.50;87.80
57753;DHT22;43583;53.132;6.574;2023-06-24T06:47:11;30.80;89.40
57753;DHT22;43583;53.132;6.574;2023-06-24T06:49:37;30.60;90.50
57753;DHT22;43583;53.132;6.574;2023-06-24T06:52:03;30.20;90.80
57753;DHT22;43583;53.132;6.574;2023-06-24T06:54:28;30.00;91.10
57753;DHT22;43583;53.132;6.574;2023-06-24T06:56:54;29.70;91.20
57753;DHT22;43583;53.132;6.574;2023-06-24T06:59:20;29.70;91.70
57753;DHT22;43583;53.132;6.574;2023-06-24T07:01:46;29.80;91.90
57753;DHT22;43583;53.132;6.574;2023-06-24T07:04:12;29.70;92.30
57753;DHT22;43583;53.132;6.574;2023-06-24T07:06:37;29.50;92.40
57753;DHT22;43583;53.132;6.574;2023-06-24T07:09:03;29.30;92.60
57753;DHT22;43583;53.132;6.574;2023-06-24T07:11:29;29.10;92.50
57753;DHT22;43583;53.132;6.574;2023-06-24T07:13:54;28.80;93.00
57753;DHT22;43583;53.132;6.574;2023-06-24T07:16:20;28.50;93.50
57753;DHT22;43583;53.132;6.574;2023-06-24T07:18:45;28.30;94.60
57753;DHT22;43583;53.132;6.574;2023-06-24T07:21:11;28.00;95.10
57753;DHT22;43583;53.132;6.574;2023-06-24T07:23:36;27.70;95.20
57753;DHT22;43583;53.132;6.574;2023-06-24T07:26:02;27.40;96.10
57753;DHT22;43583;53.132;6.574;2023-06-24T07:28:27;27.10;96.50
57753;DHT22;43583;53.132;6.574;2023-06-24T07:30:53;26.80;97.50
57753;DHT22;43583;53.132;6.574;2023-06-24T07:33:19;26.70;98.70
57753;DHT22;43583;53.132;6.574;2023-06-24T07:35:45;26.50;99.90
57753;DHT22;43583;53.132;6.574;2023-06-24T07:38:10;26.50;99.90
57753;DHT22;43583;53.132;6.574;2023-06-24T07:40:36;26.50;99.90
57753;DHT22;43583;53.132;6.574;2023-06-24T07:43:01;26.70;99.90
57753;DHT22;43583;53.132;6.574;2023-06-24T07:45:27;26.90;99.90
57753;DHT22;43583;53.132;6.574;2023-06-24T07:47:52;27.30;99.90
57753;DHT22;43583;53.132;6.574;2023-06-24T07:50:18;27.70;99.90
57753;DHT22;43583;53.132;6.574;2023-06-24T07:52:43;28.10;99.20
57753;DHT22;43583;53.132;6.574;2023-06-24T07:55:09;28.30;98.80
57753;DHT22;43583;53.132;6.574;2023-06-24T07:57:34;28.60;99.00
57753;DHT22;43583;53.132;6.574;2023-06-24T08:00:00;29.00;97.70
57753;DHT22;43583;53.132;6.574;2023-06-24T08:02:25;29.30;96.70
57753;DHT22;43583;53.132;6.574;2023-06-24T08:04:51;29.40;96.70
57753;DHT22;43583;53.132;6.574;2023-06-24T08:07:17;29.20;96.50
57753;DHT22;43583;53.132;6.574;2023-06-24T08:09:43;29.30;96.40
57753;DHT22;43583;53.132;6.574;2023-06-24T08:12:09;29.60;96.30
57753;DHT22;43583;53.132;6.574;2023-06-24T08:14:35;29.90;95.30
57753;DHT22;43583;53.132;6.574;2023-06-24T08:17:01;29.90;94.60
57753;DHT22;43583;53.132;6.574;2023-06-24T08:19:26;30.00;95.30
57753;DHT22;43583;53.132;6.574;2023-06-24T08:21:52;30.00;95.00
57753;DHT22;43583;53.132;6.574;2023-06-24T08:24:18;30.10;94.40
57753;DHT22;43583;53.132;6.574;2023-06-24T08:26:44;30.20;93.70
57753;DHT22;43583;53.132;6.574;2023-06-24T08:29:09;30.10;93.30
57753;DHT22;43583;53.132;6.574;2023-06-24T08:31:35;30.10;93.10
57753;DHT22;43583;53.132;6.574;2023-06-24T08:34:01;30.10;92.80
57753;DHT22;43583;53.132;6.574;2023-06-24T08:36:31;29.90;92.70
57753;DHT22;43583;53.132;6.574;2023-06-24T08:38:57;29.80;93.10
57753;DHT22;43583;53.132;6.574;2023-06-24T08:41:22;29.60;93.10
57753;DHT22;43583;53.132;6.574;2023-06-24T08:43:50;29.40;92.70
57753;DHT22;43583;53.132;6.574;2023-06-24T08:46:16;29.20;93.00
57753;DHT22;43583;53.132;6.574;2023-06-24T08:48:45;29.10;93.80
57753;DHT22;43583;53.132;6.574;2023-06-24T08:51:13;29.10;94.60
57753;DHT22;43583;53.132;6.574;2023-06-24T08:53:42;29.10;94.10
57753;DHT22;43583;53.132;6.574;2023-06-24T08:56:09;29.10;94.10
57753;DHT22;43583;53.132;6.574;2023-06-24T08:58:35;29.20;94.20
57753;DHT22;43583;53.132;6.574;2023-06-24T09:01:01;29.20;93.80
57753;DHT22;43583;53.132;6.574;2023-06-24T09:03:27;29.20;93.70
57753;DHT22;43583;53.132;6.574;2023-06-24T09:05:53;29.20;93.40
57753;DHT22;43583;53.132;6.574;2023-06-24T09:08:18;29.30;93.30
57753;DHT22;43583;53.132;6.574;2023-06-24T09:10:52;29.40;93.50
57753;DHT22;43583;53.132;6.574;2023-06-24T09:13:19;29.60;94.50
57753;DHT22;43583;53.132;6.574;2023-06-24T09:15:45;29.70;93.30
57753;DHT22;43583;53.132;6.574;2023-06-24T09:18:11;30.20;92.90
57753;DHT22;43583;53.132;6.574;2023-06-24T09:20:41;30.60;93.00
57753;DHT22;43583;53.132;6.574;2023-06-24T09:23:10;31.00;93.00
57753;DHT22;43583;53.132;6.574;2023-06-24T09:25:36;31.00;91.70
57753;DHT22;43583;53.132;6.574;2023-06-24T09:28:02;30.70;91.10
57753;DHT22;43583;53.132;6.574;2023-06-24T09:30:28;30.70;91.00
57753;DHT22;43583;53.132;6.574;2023-06-24T09:32:54;30.60;91.20
57753;DHT22;43583;53.132;6.574;2023-06-24T09:35:24;30.80;91.60
57753;DHT22;43583;53.132;6.574;2023-06-24T09:37:55;31.00;91.10
57753;DHT22;43583;53.132;6.574;2023-06-24T09:40:21;31.00;91.80
57753;DHT22;43583;53.132;6.574;2023-06-24T09:42:55;31.10;90.90
57753;DHT22;43583;53.132;6.574;2023-06-24T09:45:26;31.20;91.20
57753;DHT22;43583;53.132;6.574;2023-06-24T09:47:52;31.30;92.00
57753;DHT22;43583;53.132;6.574;2023-06-24T09:50:18;31.40;91.40
57753;DHT22;43583;53.132;6.574;2023-06-24T09:52:45;31.30;90.90
57753;DHT22;43583;53.132;6.574;2023-06-24T09:55:13;31.30;90.70
57753;DHT22;43583;53.132;6.574;2023-06-24T09:57:50;31.30;91.20
57753;DHT22;43583;53.132;6.574;2023-06-24T10:00:18;31.40;91.30
57753;DHT22;43583;53.132;6.574;2023-06-24T10:02:45;31.40;90.10
57753;DHT22;43583;53.132;6.574;2023-06-24T10:05:12;31.50;90.20
57753;DHT22;43583;53.132;6.574;2023-06-24T10:07:39;31.40;88.50
57753;DHT22;43583;53.132;6.574;2023-06-24T10:10:06;31.40;90.00
57753;DHT22;43583;53.132;6.574;2023-06-24T10:12:32;31.60;90.60
57753;DHT22;43583;53.132;6.574;2023-06-24T10:14:59;31.70;90.00
57753;DHT22;43583;53.132;6.574;2023-06-24T10:17:25;31.40;88.30
57753;DHT22;43583;53.132;6.574;2023-06-24T10:19:52;31.20;86.70
57753;DHT22;43583;53.132;6.574;2023-06-24T10:22:22;31.10;85.20
57753;DHT22;43583;53.132;6.574;2023-06-24T10:24:51;31.40;86.00
57753;DHT22;43583;53.132;6.574;2023-06-24T10:27:19;31.40;86.40
57753;DHT22;43583;53.132;6.574;2023-06-24T10:29:51;31.50;85.90
57753;DHT22;43583;53.132;6.574;2023-06-24T10:32:18;31.50;84.60
57753;DHT22;43583;53.132;6.574;2023-06-24T10:34:55;31.40;83.20
57753;DHT22;43583;53.132;6.574;2023-06-24T10:37:23;31.00;84.10
57753;DHT22;43583;53.132;6.574;2023-06-24T10:39:54;30.20;82.60
57753;DHT22;43583;53.132;6.574;2023-06-24T10:44:50;29.80;84.30
57753;DHT22;43583;53.132;6.574;2023-06-24T10:47:16;29.90;84.00
57753;DHT22;43583;53.132;6.574;2023-06-24T10:49:41;30.20;84.90
57753;DHT22;43583;53.132;6.574;2023-06-24T10:52:10;30.40;85.00
57753;DHT22;43583;53.132;6.574;2023-06-24T10:54:41;30.40;84.70
57753;DHT22;43583;53.132;6.574;2023-06-24T10:57:07;30.70;85.40
57753;DHT22;43583;53.132;6.574;2023-06-24T10:59:47;30.30;84.00
57753;DHT22;43583;53.132;6.574;2023-06-24T11:02:31;30.30;84.40
57753;DHT22;43583;53.132;6.574;2023-06-24T11:05:01;30.50;83.80
57753;DHT22;43583;53.132;6.574;2023-06-24T11:07:29;30.90;86.40
57753;DHT22;43583;53.132;6.574;2023-06-24T11:09:58;31.30;85.60
57753;DHT22;43583;53.132;6.574;2023-06-24T11:12:26;31.50;85.40
57753;DHT22;43583;53.132;6.574;2023-06-24T11:14:52;31.60;84.40
57753;DHT22;43583;53.132;6.574;2023-06-24T11:17:20;31.70;84.50
57753;DHT22;43583;53.132;6.574;2023-06-24T11:19:46;31.80;84.80
57753;DHT22;43583;53.132;6.574;2023-06-24T11:22:12;31.80;83.10
57753;DHT22;43583;53.132;6.574;2023-06-24T11:24:37;31.80;82.60
57753;DHT22;43583;53.132;6.574;2023-06-24T11:27:05;31.70;81.10
57753;DHT22;43583;53.132;6.574;2023-06-24T11:29:32;31.60;81.10
57753;DHT22;43583;53.132;6.574;2023-06-24T11:31:58;31.50;82.30
57753;DHT22;43583;53.132;6.574;2023-06-24T11:34:24;31.20;83.10
57753;DHT22;43583;53.132;6.574;2023-06-24T11:36:50;31.10;82.80
57753;DHT22;43583;53.132;6.574;2023-06-24T11:39:27;31.30;83.70
57753;DHT22;43583;53.132;6.574;2023-06-24T11:41:53;31.50;83.00
57753;DHT22;43583;53.132;6.574;2023-06-24T11:44:20;31.60;83.40
57753;DHT22;43583;53.132;6.574;2023-06-24T11:46:46;31.80;83.20
57753;DHT22;43583;53.132;6.574;2023-06-24T11:49:12;32.00;84.50
57753;DHT22;43583;53.132;6.574;2023-06-24T11:51:46;32.20;84.40
57753;DHT22;43583;53.132;6.574;2023-06-24T11:54:19;32.40;83.30
57753;DHT22;43583;53.132;6.574;2023-06-24T11:56:50;32.50;82.80
57753;DHT22;43583;53.132;6.574;2023-06-24T11:59:19;32.50;79.70
57753;DHT22;43583;53.132;6.574;2023-06-24T12:01:56;32.60;81.70
57753;DHT22;43583;53.132;6.574;2023-06-24T12:04:27;32.50;81.80
57753;DHT22;43583;53.132;6.574;2023-06-24T12:06:53;32.50;82.20
57753;DHT22;43583;53.132;6.574;2023-06-24T12:09:19;32.70;82.80
57753;DHT22;43583;53.132;6.574;2023-06-24T12:11:45;32.80;82.30
57753;DHT22;43583;53.132;6.574;2023-06-24T12:14:11;32.50;80.60
57753;DHT22;43583;53.132;6.574;2023-06-24T12:16:38;32.10;79.60
57753;DHT22;43583;53.132;6.574;2023-06-24T12:19:03;31.60;79.60
57753;DHT22;43583;53.132;6.574;2023-06-24T12:21:29;31.80;81.30
57753;DHT22;43583;53.132;6.574;2023-06-24T12:23:54;31.80;80.70
57753;DHT22;43583;53.132;6.574;2023-06-24T12:26:20;31.90;81.40
57753;DHT22;43583;53.132;6.574;2023-06-24T12:28:45;31.80;80.60
57753;DHT22;43583;53.132;6.574;2023-06-24T12:31:11;31.90;81.30
57753;DHT22;43583;53.132;6.574;2023-06-24T12:33:37;31.80;79.60
57753;DHT22;43583;53.132;6.574;2023-06-24T12:36:02;31.40;79.30
57753;DHT22;43583;53.132;6.574;2023-06-24T12:38:28;31.00;78.30
57753;DHT22;43583;53.132;6.574;2023-06-24T12:40:53;30.80;79.00
57753;DHT22;43583;53.132;6.574;2023-06-24T12:43:19;30.50;78.40
57753;DHT22;43583;53.132;6.574;2023-06-24T12:45:44;30.30;78.10
57753;DHT22;43583;53.132;6.574;2023-06-24T12:48:11;30.10;79.40
57753;DHT22;43583;53.132;6.574;2023-06-24T12:50:36;29.70;80.30
57753;DHT22;43583;53.132;6.574;2023-06-24T12:53:02;29.40;81.80
57753;DHT22;43583;53.132;6.574;2023-06-24T12:55:31;29.30;81.90
57753;DHT22;43583;53.132;6.574;2023-06-24T12:57:56;29.20;81.40
57753;DHT22;43583;53.132;6.574;2023-06-24T13:00:23;29.50;82.50
57753;DHT22;43583;53.132;6.574;2023-06-24T13:02:50;29.90;83.40
57753;DHT22;43583;53.132;6.574;2023-06-24T13:05:16;30.30;83.40
57753;DHT22;43583;53.132;6.574;2023-06-24T13:07:42;30.30;80.90
57753;DHT22;43583;53.132;6.574;2023-06-24T13:10:09;30.40;80.60
57753;DHT22;43583;53.132;6.574;2023-06-24T13:12:35;30.50;81.50
57753;DHT22;43583;53.132;6.574;2023-06-24T13:15:02;30.40;81.50
57753;DHT22;43583;53.132;6.574;2023-06-24T13:17:30;30.20;80.90
57753;DHT22;43583;53.132;6.574;2023-06-24T13:19:55;30.30;80.60
57753;DHT22;43583;53.132;6.574;2023-06-24T13:22:22;30.20;81.70
57753;DHT22;43583;53.132;6.574;2023-06-24T13:24:47;30.00;82.50
57753;DHT22;43583;53.132;6.574;2023-06-24T13:27:13;29.90;82.20
57753;DHT22;43583;53.132;6.574;2023-06-24T13:29:38;29.70;82.30
57753;DHT22;43583;53.132;6.574;2023-06-24T13:32:04;29.60;82.70
57753;DHT22;43583;53.132;6.574;2023-06-24T13:34:30;29.40;82.10
57753;DHT22;43583;53.132;6.574;2023-06-24T13:36:56;29.40;83.10
57753;DHT22;43583;53.132;6.574;2023-06-24T13:39:21;29.40;83.20
57753;DHT22;43583;53.132;6.574;2023-06-24T13:41:49;29.50;83.00
57753;DHT22;43583;53.132;6.574;2023-06-24T13:44:16;29.50;82.80
57753;DHT22;43583;53.132;6.574;2023-06-24T13:46:42;29.50;83.10
57753;DHT22;43583;53.132;6.574;2023-06-24T13:49:08;29.50;84.50
57753;DHT22;43583;53.132;6.574;2023-06-24T13:51:33;29.60;85.10
57753;DHT22;43583;53.132;6.574;2023-06-24T13:53:59;29.60;84.60
57753;DHT22;43583;53.132;6.574;2023-06-24T13:56:25;29.80;86.30
57753;DHT22;43583;53.132;6.574;2023-06-24T13:58:52;29.90;85.70
57753;DHT22;43583;53.132;6.574;2023-06-24T14:01:18;29.80;85.60
57753;DHT22;43583;53.132;6.574;2023-06-24T14:03:44;30.00;85.40
57753;DHT22;43583;53.132;6.574;2023-06-24T14:06:10;30.20;85.70
57753;DHT22;43583;53.132;6.574;2023-06-24T14:08:36;30.30;85.30
57753;DHT22;43583;53.132;6.574;2023-06-24T14:11:02;30.50;85.80
57753;DHT22;43583;53.132;6.574;2023-06-24T14:13:28;30.80;86.10
57753;DHT22;43583;53.132;6.574;2023-06-24T14:15:55;30.80;85.60
57753;DHT22;43583;53.132;6.574;2023-06-24T14:18:22;30.60;84.10
57753;DHT22;43583;53.132;6.574;2023-06-24T14:20:48;30.30;83.60
57753;DHT22;43583;53.132;6.574;2023-06-24T14:23:14;30.10;83.60
57753;DHT22;43583;53.132;6.574;2023-06-24T14:25:39;29.90;84.40
57753;DHT22;43583;53.132;6.574;2023-06-24T14:28:05;29.90;86.20
57753;DHT22;43583;53.132;6.574;2023-06-24T14:30:32;29.80;85.90
57753;DHT22;43583;53.132;6.574;2023-06-24T14:32:58;29.60;84.80
57753;DHT22;43583;53.132;6.574;2023-06-24T14:35:24;29.40;84.80
57753;DHT22;43583;53.132;6.574;2023-06-24T14:37:50;29.20;85.10
57753;DHT22;43583;53.132;6.574;2023-06-24T14:40:16;29.10;87.00
57753;DHT22;43583;53.132;6.574;2023-06-24T14:42:41;29.10;87.80
57753;DHT22;43583;53.132;6.574;2023-06-24T14:45:07;29.00;87.90
57753;DHT22;43583;53.132;6.574;2023-06-24T14:47:33;29.00;87.60
57753;DHT22;43583;53.132;6.574;2023-06-24T14:49:58;28.80;87.60
57753;DHT22;43583;53.132;6.574;2023-06-24T14:52:24;28.70;86.40
57753;DHT22;43583;53.132;6.574;2023-06-24T14:54:49;28.50;86.40
57753;DHT22;43583;53.132;6.574;2023-06-24T14:57:15;28.40;86.50
57753;DHT22;43583;53.132;6.574;2023-06-24T14:59:43;28.30;88.10
57753;DHT22;43583;53.132;6.574;2023-06-24T15:02:09;28.30;89.40
57753;DHT22;43583;53.132;6.574;2023-06-24T15:04:37;28.20;90.50
57753;DHT22;43583;53.132;6.574;2023-06-24T15:07:04;28.20;89.60
57753;DHT22;43583;53.132;6.574;2023-06-24T15:09:29;28.10;87.90
57753;DHT22;43583;53.132;6.574;2023-06-24T15:11:55;28.00;88.30
57753;DHT22;43583;53.132;6.574;2023-06-24T15:14:20;27.80;88.90
57753;DHT22;43583;53.132;6.574;2023-06-24T15:16:46;27.80;90.20
57753;DHT22;43583;53.132;6.574;2023-06-24T15:19:11;27.70;90.70
57753;DHT22;43583;53.132;6.574;2023-06-24T15:21:37;27.50;91.10
57753;DHT22;43583;53.132;6.574;2023-06-24T15:24:03;27.40;91.10
57753;DHT22;43583;53.132;6.574;2023-06-24T15:26:28;27.30;91.30
57753;DHT22;43583;53.132;6.574;2023-06-24T15:28:54;27.30;92.10
57753;DHT22;43583;53.132;6.574;2023-06-24T15:31:20;27.20;92.20
57753;DHT22;43583;53.132;6.574;2023-06-24T15:33:45;27.10;92.50
57753;DHT22;43583;53.132;6.574;2023-06-24T15:36:11;27.10;92.20
57753;DHT22;43583;53.132;6.574;2023-06-24T15:38:36;27.00;92.60
57753;DHT22;43583;53.132;6.574;2023-06-24T15:41:02;26.90;92.80
57753;DHT22;43583;53.132;6.574;2023-06-24T15:43:27;26.90;93.00